createdAt,value
2019-04-26T00:01:22.771Z,50.70
2019-04-26T00:03:51.715Z,50.90
2019-04-26T00:06:20.323Z,50.70
2019-04-26T00:09:06.415Z,49.70
2019-04-26T00:11:42.331Z,50.20
2019-04-26T00:14:24.238Z,51.60
2019-04-26T00:16:57.091Z,51.70
2019-04-26T00:19:25.693Z,51.90
2019-04-26T00:21:54.266Z,51.20
2019-04-26T00:24:22.914Z,51.60
2019-04-26T00:26:51.306Z,52.20
2019-04-26T00:29:19.630Z,52.50
2019-04-26T00:31:47.901Z,50.40
2019-04-26T00:34:16.186Z,50.90
2019-04-26T00:36:44.490Z,51.20
2019-04-26T00:39:13.341Z,51.20
2019-04-26T00:41:42.553Z,51.40
2019-04-26T00:44:10.864Z,50.70
2019-04-26T00:46:39.137Z,50.40
2019-04-26T00:49:07.455Z,50.50
2019-04-26T00:51:35.800Z,50.20
2019-04-26T00:54:04.172Z,50.60
2019-04-26T00:56:32.441Z,50.60
2019-04-26T00:59:00.760Z,50.80
2019-04-26T01:01:30.685Z,50.40
2019-04-26T01:03:58.997Z,51.10
2019-04-26T01:06:28.926Z,51.40
2019-04-26T01:08:57.208Z,51.30
2019-04-26T01:11:26.057Z,50.40
2019-04-26T01:13:54.370Z,50.50
2019-04-26T01:16:22.618Z,50.70
2019-04-26T01:18:50.863Z,51.80
2019-04-26T01:21:19.220Z,51.80
2019-04-26T01:23:47.451Z,51.90
2019-04-26T01:26:27.718Z,51.80
2019-04-26T01:29:01.845Z,51.60
2019-04-26T01:31:30.123Z,52.10
2019-04-26T01:34:01.494Z,52.10
2019-04-26T01:36:29.854Z,51.80
2019-04-26T01:39:01.405Z,51.20
2019-04-26T01:41:34.253Z,51.80
2019-04-26T01:44:04.151Z,52.00
2019-04-26T01:46:40.476Z,51.90
2019-04-26T01:49:09.322Z,52.20
2019-04-26T01:51:46.644Z,52.30
2019-04-26T01:54:16.852Z,53.60
2019-04-26T01:56:45.102Z,53.00
2019-04-26T01:59:13.354Z,52.80
2019-04-26T02:01:52.338Z,52.50
2019-04-26T02:04:22.463Z,52.50
2019-04-26T02:06:50.781Z,52.60
2019-04-26T02:09:19.083Z,52.40
2019-04-26T02:11:47.386Z,52.70
2019-04-26T02:14:15.653Z,52.40
2019-04-26T02:16:43.934Z,52.80
2019-04-26T02:19:12.213Z,53.60
2019-04-26T02:21:47.798Z,53.00
2019-04-26T02:24:20.376Z,53.10
2019-04-26T02:26:48.673Z,53.30
2019-04-26T02:29:26.918Z,53.10
2019-04-26T02:31:57.505Z,54.10
2019-04-26T02:34:27.937Z,53.80
2019-04-26T02:36:58.903Z,54.60
2019-04-26T02:39:38.495Z,54.40
2019-04-26T02:42:10.083Z,54.70
2019-04-26T02:44:45.076Z,55.10
2019-04-26T02:47:30.955Z,56.10
2019-04-26T02:50:05.056Z,56.30
2019-04-26T02:52:54.382Z,57.00
2019-04-26T02:55:56.054Z,56.90
2019-04-26T02:58:25.305Z,57.00
2019-04-26T03:00:53.620Z,56.90
2019-04-26T03:03:22.193Z,57.50
2019-04-26T03:05:50.538Z,58.50
2019-04-26T03:08:19.688Z,59.00
2019-04-26T03:10:49.719Z,59.60
2019-04-26T03:13:22.570Z,59.20
2019-04-26T03:16:08.234Z,59.40
2019-04-26T03:18:50.038Z,60.20
2019-04-26T03:21:39.446Z,60.50
2019-04-26T03:24:13.563Z,60.90
2019-04-26T03:26:56.922Z,61.40
2019-04-26T03:29:37.424Z,61.10
2019-04-26T03:32:21.512Z,61.40
2019-04-26T03:35:21.585Z,61.80
2019-04-26T03:37:57.625Z,62.70
2019-04-26T03:40:48.595Z,62.50
2019-04-26T03:43:22.830Z,63.10
2019-04-26T03:45:57.077Z,63.60
2019-04-26T03:48:31.351Z,64.10
2019-04-26T03:51:19.213Z,65.70
2019-04-26T03:53:50.715Z,66.50
2019-04-26T03:56:26.769Z,67.10
2019-04-26T03:59:07.875Z,67.70
2019-04-26T04:01:39.428Z,68.40
2019-04-26T04:04:26.238Z,68.70
2019-04-26T04:07:03.704Z,69.30
2019-04-26T04:09:24.422Z,70.10
2019-04-26T04:12:12.402Z,70.80
2019-04-26T04:14:45.264Z,71.20
2019-04-26T04:17:21.648Z,72.30
2019-04-26T04:20:00.434Z,72.40
2019-04-26T04:22:34.840Z,73.00
2019-04-26T04:25:14.883Z,73.20
2019-04-26T04:27:49.422Z,73.30
2019-04-26T04:30:29.391Z,73.70
2019-04-26T04:33:03.449Z,74.00
2019-04-26T04:35:32.867Z,74.20
2019-04-26T04:38:15.955Z,74.50
2019-04-26T04:41:12.667Z,74.70
2019-04-26T04:43:50.479Z,74.90
2019-04-26T04:46:47.466Z,74.80
2019-04-26T04:49:26.001Z,74.50
2019-04-26T04:51:57.500Z,75.00
2019-04-26T04:54:39.466Z,75.20
2019-04-26T04:57:16.974Z,75.50
2019-04-26T05:00:06.479Z,75.50
2019-04-26T05:02:50.915Z,75.60
2019-04-26T05:05:32.507Z,75.70
2019-04-26T05:08:18.935Z,75.60
2019-04-26T05:10:54.129Z,76.30
2019-04-26T05:13:28.537Z,75.40
2019-04-26T05:16:22.727Z,75.90
2019-04-26T05:18:52.725Z,76.40
2019-04-26T05:21:41.501Z,76.90
2019-04-26T05:24:39.973Z,76.90
2019-04-26T05:27:31.052Z,77.70
2019-04-26T05:30:36.817Z,77.70
2019-04-26T05:33:11.080Z,77.80
2019-04-26T05:36:00.699Z,77.80
2019-04-26T05:38:41.070Z,77.70
2019-04-26T05:41:19.180Z,78.30
2019-04-26T05:44:11.558Z,78.30
2019-04-26T05:46:53.619Z,77.80
2019-04-26T05:49:43.455Z,77.30
2019-04-26T05:52:34.428Z,76.60
2019-04-26T05:55:27.910Z,76.60
2019-04-26T05:58:16.067Z,76.00
2019-04-26T06:00:55.741Z,75.30
2019-04-26T06:03:52.247Z,74.60
2019-04-26T06:06:39.891Z,74.60
2019-04-26T06:09:24.533Z,74.00
2019-04-26T06:12:09.200Z,73.30
2019-04-26T06:15:09.022Z,73.00
2019-04-26T06:18:05.846Z,72.60
2019-04-26T06:20:45.179Z,72.20
2019-04-26T06:23:40.477Z,72.20
2019-04-26T06:26:46.230Z,71.60
2019-04-26T06:29:17.746Z,71.30
2019-04-26T06:31:51.707Z,70.50
2019-04-26T06:34:48.572Z,70.00
2019-04-26T06:37:36.293Z,69.80
2019-04-26T06:40:15.120Z,69.90
2019-04-26T06:43:03.344Z,69.50
2019-04-26T06:45:47.927Z,68.80
2019-04-26T06:48:25.762Z,68.00
2019-04-26T06:51:24.277Z,67.70
2019-04-26T06:54:03.430Z,66.30
2019-04-26T06:56:37.631Z,66.20
2019-04-26T06:59:21.243Z,66.10
2019-04-26T07:01:51.878Z,66.00
2019-04-26T07:04:26.373Z,65.10
2019-04-26T07:07:13.422Z,64.30
2019-04-26T07:10:04.053Z,63.00
2019-04-26T07:12:36.504Z,63.20
2019-04-26T07:15:28.842Z,62.30
2019-04-26T07:18:12.854Z,62.10
2019-04-26T07:20:48.880Z,60.70
2019-04-26T07:23:27.739Z,60.60
2019-04-26T07:26:16.982Z,61.00
2019-04-26T07:28:54.494Z,60.50
2019-04-26T07:31:38.171Z,60.70
2019-04-26T07:34:42.380Z,60.20
2019-04-26T07:37:33.267Z,59.00
2019-04-26T07:40:27.024Z,59.20
2019-04-26T07:43:16.628Z,58.90
2019-04-26T07:45:49.814Z,58.50
2019-04-26T07:48:41.659Z,58.80
2019-04-26T07:51:37.272Z,59.30
2019-04-26T07:54:41.911Z,59.30
2019-04-26T07:57:14.112Z,60.60
2019-04-26T08:00:08.895Z,61.20
2019-04-26T08:02:56.597Z,61.00
2019-04-26T08:05:46.884Z,60.30
2019-04-26T08:08:20.283Z,60.00
2019-04-26T08:11:11.434Z,59.60
2019-04-26T08:13:45.658Z,58.80
2019-04-26T08:16:31.928Z,58.10
2019-04-26T08:19:08.467Z,58.40
2019-04-26T08:21:42.508Z,57.80
2019-04-26T08:24:24.542Z,57.60
2019-04-26T08:27:08.957Z,57.20
2019-04-26T08:29:33.334Z,58.10
2019-04-26T08:32:01.763Z,57.10
2019-04-26T08:34:33.735Z,56.20
2019-04-26T08:37:03.268Z,56.30
2019-04-26T08:39:44.937Z,55.80
2019-04-26T08:42:05.058Z,55.70
2019-04-26T08:44:41.044Z,56.00
2019-04-26T08:47:16.410Z,56.00
2019-04-26T08:50:00.006Z,56.30
2019-04-26T08:52:29.612Z,55.60
2019-04-26T08:54:57.926Z,56.00
2019-04-26T08:57:27.210Z,56.60
2019-04-26T08:59:55.824Z,57.00
2019-04-26T09:02:45.795Z,57.20
2019-04-26T09:05:24.625Z,57.20
2019-04-26T09:07:57.556Z,57.80
2019-04-26T09:10:24.931Z,57.40
2019-04-26T09:12:53.230Z,57.20
2019-04-26T09:15:24.737Z,57.30
2019-04-26T09:17:53.002Z,56.90
2019-04-26T09:20:28.494Z,56.60
2019-04-26T09:22:56.667Z,57.00
2019-04-26T09:25:34.115Z,56.70
2019-04-26T09:28:02.049Z,57.30
2019-04-26T09:30:34.239Z,57.60
2019-04-26T09:33:06.592Z,57.90
2019-04-26T09:35:34.860Z,58.00
2019-04-26T09:38:03.136Z,58.90
2019-04-26T09:40:31.543Z,59.40
2019-04-26T09:43:10.478Z,60.40
2019-04-26T09:45:55.036Z,61.20
2019-04-26T09:48:24.915Z,61.80
2019-04-26T09:50:54.882Z,61.60
2019-04-26T09:53:23.126Z,61.30
2019-04-26T09:55:51.403Z,61.00
2019-04-26T09:58:19.702Z,61.20
2019-04-26T10:00:48.504Z,61.50
2019-04-26T10:03:17.901Z,61.70
2019-04-26T10:05:46.216Z,61.50
2019-04-26T10:08:14.623Z,62.40
2019-04-26T10:10:42.853Z,63.40
2019-04-26T10:13:29.901Z,64.40
2019-04-26T10:16:02.616Z,65.00
2019-04-26T10:18:29.828Z,65.80
2019-04-26T10:20:58.099Z,66.80
2019-04-26T10:23:26.342Z,66.90
2019-04-26T10:25:54.609Z,66.80
2019-04-26T10:28:22.852Z,66.80
2019-04-26T10:30:51.268Z,67.30
2019-04-26T10:33:19.548Z,68.30
2019-04-26T10:35:47.778Z,68.70
2019-04-26T10:38:19.443Z,69.50
2019-04-26T10:40:46.029Z,68.60
2019-04-26T10:43:14.475Z,68.20
2019-04-26T10:45:45.964Z,68.60
2019-04-26T10:48:14.033Z,68.10
2019-04-26T10:50:42.690Z,68.00
2019-04-26T10:53:12.572Z,68.80
2019-04-26T10:55:42.492Z,69.60
2019-04-26T10:58:18.215Z,70.00
2019-04-26T11:00:52.796Z,70.60
2019-04-26T11:03:20.842Z,71.10
2019-04-26T11:05:49.296Z,72.40
2019-04-26T11:08:19.070Z,72.90
2019-04-26T11:10:48.863Z,72.90
2019-04-26T11:13:17.294Z,72.90
2019-04-26T11:15:45.956Z,72.90
2019-04-26T11:18:14.210Z,72.80
2019-04-26T11:20:45.658Z,72.80
2019-04-26T11:23:12.934Z,73.10
2019-04-26T11:25:41.193Z,73.90
2019-04-26T11:28:09.447Z,74.10
2019-04-26T11:30:37.690Z,74.00
2019-04-26T11:33:07.250Z,74.60
2019-04-26T11:35:36.148Z,74.50
2019-04-26T11:38:04.488Z,74.50
2019-04-26T11:40:32.808Z,74.10
2019-04-26T11:43:01.064Z,73.80
2019-04-26T11:45:29.349Z,74.60
2019-04-26T11:47:57.631Z,74.50
2019-04-26T11:50:25.859Z,74.60
2019-04-26T11:52:54.175Z,76.00
2019-04-26T11:55:25.225Z,77.40
2019-04-26T11:57:52.376Z,78.50
2019-04-26T12:00:22.286Z,79.90
2019-04-26T12:02:52.003Z,81.70
2019-04-26T12:05:37.923Z,83.40
2019-04-26T12:08:07.800Z,85.20
2019-04-26T12:10:36.124Z,84.80
2019-04-26T12:13:06.851Z,85.20
2019-04-26T12:15:34.383Z,85.70
2019-04-26T12:18:05.478Z,84.80
2019-04-26T12:20:32.848Z,85.70
2019-04-26T12:23:01.101Z,86.30
2019-04-26T12:25:31.066Z,86.20
2019-04-26T12:28:01.918Z,84.70
2019-04-26T12:30:29.461Z,86.20
2019-04-26T12:32:57.715Z,84.60
2019-04-26T12:35:25.953Z,84.00
2019-04-26T12:37:54.771Z,84.60
2019-04-26T12:40:24.017Z,84.30
2019-04-26T12:42:52.270Z,85.00
2019-04-26T12:45:31.211Z,84.90
2019-04-26T12:48:01.087Z,85.30
2019-04-26T12:50:32.979Z,84.90
2019-04-26T12:52:59.325Z,86.10
2019-04-26T12:55:27.631Z,87.00
2019-04-26T12:57:55.949Z,88.10
2019-04-26T13:00:25.843Z,89.20
2019-04-26T13:02:55.662Z,90.20
2019-04-26T13:05:24.008Z,90.30
2019-04-26T13:07:53.718Z,90.10
2019-04-26T13:10:39.493Z,90.20
2019-04-26T13:13:09.388Z,89.70
2019-04-26T13:15:58.869Z,90.40
2019-04-26T13:18:27.205Z,90.30
2019-04-26T13:20:58.562Z,90.50
2019-04-26T13:23:29.417Z,89.00
2019-04-26T13:25:59.114Z,88.70
2019-04-26T13:28:25.372Z,88.10
2019-04-26T13:30:53.610Z,88.80
2019-04-26T13:33:23.288Z,89.00
2019-04-26T13:36:02.832Z,88.10
2019-04-26T13:38:21.758Z,87.90
2019-04-26T13:40:49.982Z,87.60
2019-04-26T13:43:18.210Z,86.50
2019-04-26T13:45:51.015Z,87.80
2019-04-26T13:48:29.590Z,87.80
2019-04-26T13:51:14.362Z,86.60
2019-04-26T13:53:42.634Z,87.60
2019-04-26T13:56:10.907Z,86.20
2019-04-26T13:58:39.135Z,86.60
2019-04-26T14:01:08.187Z,84.10
2019-04-26T14:03:36.427Z,84.20
2019-04-26T14:06:04.674Z,83.30
2019-04-26T14:08:32.902Z,84.90
2019-04-26T14:11:01.137Z,84.60
2019-04-26T14:13:29.428Z,84.90
2019-04-26T14:15:57.673Z,85.00
2019-04-26T14:18:26.195Z,83.70
2019-04-26T14:20:54.885Z,84.10
2019-04-26T14:23:33.542Z,84.40
2019-04-26T14:26:05.232Z,86.20
2019-04-26T14:28:33.351Z,86.40
2019-04-26T14:31:01.588Z,84.50
2019-04-26T14:33:30.862Z,84.90
2019-04-26T14:35:59.815Z,83.10
2019-04-26T14:38:35.691Z,84.10
2019-04-26T14:41:03.985Z,84.00
2019-04-26T14:43:40.068Z,84.30
2019-04-26T14:45:58.061Z,84.30
2019-04-26T14:48:35.819Z,84.40
2019-04-26T14:51:07.393Z,83.00
2019-04-26T14:53:26.249Z,82.80
2019-04-26T14:55:55.583Z,83.70
2019-04-26T14:58:29.862Z,84.70
2019-04-26T15:00:58.056Z,83.70
2019-04-26T15:03:27.077Z,84.50
2019-04-26T15:06:16.797Z,85.80
2019-04-26T15:08:48.573Z,86.40
2019-04-26T15:11:14.774Z,87.10
2019-04-26T15:13:43.735Z,86.40
2019-04-26T15:16:14.180Z,87.20
2019-04-26T15:18:42.685Z,88.40
2019-04-26T15:21:12.737Z,88.10
2019-04-26T15:23:41.146Z,88.20
2019-04-26T15:26:09.386Z,89.40
2019-04-26T15:28:37.622Z,88.70
2019-04-26T15:31:05.863Z,90.10
2019-04-26T15:33:35.895Z,89.00
2019-04-26T15:36:06.278Z,89.20
2019-04-26T15:38:40.986Z,89.80
2019-04-26T15:41:11.467Z,89.50
2019-04-26T15:43:37.414Z,90.10
2019-04-26T15:46:16.453Z,90.30
2019-04-26T15:49:04.717Z,90.20
2019-04-26T15:51:33.104Z,90.10
2019-04-26T15:54:01.344Z,90.60
2019-04-26T15:56:29.592Z,90.70
2019-04-26T15:58:57.903Z,90.70
2019-04-26T16:01:26.195Z,90.20
2019-04-26T16:03:54.522Z,90.10
2019-04-26T16:06:23.636Z,90.20
2019-04-26T16:08:52.187Z,89.00
2019-04-26T16:11:24.017Z,90.20
2019-04-26T16:13:55.426Z,90.60
2019-04-26T16:16:27.946Z,89.70
2019-04-26T16:18:53.965Z,89.70
2019-04-26T16:21:22.329Z,89.50
2019-04-26T16:23:53.654Z,90.00
2019-04-26T16:26:20.571Z,90.10
2019-04-26T16:28:50.500Z,90.00
2019-04-26T16:31:23.331Z,90.60
2019-04-26T16:34:06.589Z,90.20
2019-04-26T16:36:32.285Z,90.20
2019-04-26T16:39:02.567Z,90.10
2019-04-26T16:41:35.982Z,89.60
2019-04-26T16:44:02.640Z,89.20
2019-04-26T16:46:33.141Z,89.40
2019-04-26T16:49:03.764Z,88.50
2019-04-26T16:51:30.775Z,88.30
2019-04-26T16:54:06.795Z,87.80
2019-04-26T16:56:29.131Z,87.40
2019-04-26T16:58:57.430Z,87.60
2019-04-26T17:01:25.764Z,87.70
2019-04-26T17:03:54.079Z,87.20
2019-04-26T17:06:23.326Z,87.30
2019-04-26T17:08:58.739Z,87.30
2019-04-26T17:11:22.947Z,87.40
2019-04-26T17:13:56.418Z,87.20
2019-04-26T17:16:22.155Z,86.30
2019-04-26T17:18:51.294Z,87.40
2019-04-26T17:21:23.845Z,87.70
2019-04-26T17:23:53.039Z,87.60
2019-04-26T17:26:24.398Z,88.00
2019-04-26T17:28:55.464Z,86.10
2019-04-26T17:31:22.901Z,86.60
2019-04-26T17:33:51.161Z,86.00
2019-04-26T17:36:19.449Z,85.60
2019-04-26T17:38:47.821Z,85.70
2019-04-26T17:41:16.066Z,86.00
2019-04-26T17:43:47.431Z,85.80
2019-04-26T18:00:07.341Z,87.10
2019-04-26T18:02:54.367Z,87.80
2019-04-26T19:06:10.718Z,88.00
2019-04-26T19:11:52.407Z,87.50
2019-04-26T19:14:49.057Z,87.80
2019-04-26T19:24:33.061Z,88.70
2019-04-26T19:36:22.648Z,87.40
2019-04-26T19:45:33.976Z,88.70
2019-04-26T19:49:25.687Z,88.80
2019-04-26T19:55:11.326Z,88.50
2019-04-26T19:57:45.355Z,88.50
2019-04-26T20:00:28.562Z,88.80
2019-04-26T20:03:02.128Z,89.10
2019-04-26T20:05:32.429Z,89.10
2019-04-26T20:08:15.356Z,89.00
2019-04-26T20:11:18.516Z,89.30
2019-04-26T20:13:35.565Z,89.10
2019-04-26T20:16:05.923Z,89.00
2019-04-26T20:18:42.090Z,89.10
2019-04-26T20:21:15.491Z,88.70
2019-04-26T20:23:47.329Z,89.00
2019-04-26T20:26:16.228Z,88.50
2019-04-26T20:28:49.338Z,88.80
2019-04-26T20:31:31.080Z,88.70
2019-04-26T20:34:10.986Z,88.10
2019-04-26T20:36:41.436Z,88.30
2019-04-26T20:39:12.444Z,88.00
2019-04-26T20:41:43.401Z,88.40
2019-04-26T20:44:14.705Z,88.40
2019-04-26T20:46:48.057Z,87.50
2019-04-26T20:49:32.673Z,87.20
2019-04-26T20:51:56.875Z,88.20
2019-04-26T20:54:31.649Z,88.20
2019-04-26T20:57:01.782Z,88.60
2019-04-26T20:59:31.640Z,89.00
2019-04-26T21:02:07.592Z,89.40
2019-04-26T21:04:38.365Z,89.60
2019-04-26T21:07:11.369Z,90.00
2019-04-26T21:09:43.473Z,90.10
2019-04-26T21:12:18.798Z,90.00
2019-04-26T21:14:54.286Z,90.00
2019-04-26T21:17:27.749Z,90.00
2019-04-26T21:19:58.427Z,90.00
2019-04-26T21:22:31.801Z,90.10
2019-04-26T21:29:35.078Z,90.30
2019-04-26T21:32:09.405Z,90.60
2019-04-26T21:34:44.914Z,90.50
2019-04-26T21:37:28.931Z,90.50
2019-04-26T21:40:09.048Z,90.50
2019-04-26T21:42:36.461Z,90.30
2019-04-26T21:45:10.587Z,90.30
2019-04-26T21:47:40.261Z,90.10
2019-04-26T21:50:10.324Z,90.20
2019-04-26T21:52:54.011Z,90.10
2019-04-26T21:55:43.425Z,89.80
2019-04-26T21:58:25.067Z,90.00
2019-04-26T22:01:03.138Z,90.00
2019-04-26T22:03:47.325Z,89.60
2019-04-26T22:06:26.808Z,89.70
2019-04-26T22:09:05.457Z,89.90
2019-04-26T22:11:49.467Z,89.70
2019-04-26T22:14:24.698Z,89.80
2019-04-26T22:17:01.992Z,89.60
2019-04-26T22:19:45.832Z,89.70
2019-04-26T22:22:25.286Z,89.20
2019-04-26T22:25:17.626Z,89.50
2019-04-26T22:31:18.630Z,89.60
2019-04-26T22:36:47.734Z,89.60
2019-04-26T22:48:36.954Z,90.20
2019-04-26T22:51:16.504Z,90.20
2019-04-26T22:54:15.048Z,90.00
2019-04-26T22:56:56.373Z,90.10
2019-04-26T23:02:33.519Z,90.40
2019-04-26T23:05:55.023Z,90.50
2019-04-26T23:08:03.282Z,90.60
2019-04-26T23:10:53.114Z,90.40
2019-04-26T23:13:55.446Z,90.40
2019-04-26T23:16:40.436Z,90.20
2019-04-26T23:19:10.273Z,90.40
2019-04-26T23:21:52.855Z,90.40
2019-04-26T23:24:23.691Z,90.50
2019-04-26T23:29:58.303Z,90.50
2019-04-26T23:32:48.379Z,90.70
2019-04-26T23:35:23.939Z,90.70
2019-04-26T23:38:00.919Z,90.90
2019-04-26T23:53:08.160Z,90.80
